Time;durP1;ratioP1;P1;durP2;ratioP2;P2;SDS_P1;SDS_P2;PMS_P1;PMS_P2;Temp;Humidity;BMP_temperature;BMP_pressure;BME280_temperature;BME280_humidity;BME280_pressure;Samples;Min_cycle;Max_cycle;Signal;HPM_P1;HPM_P2
2023/03/16 00:00:41;;;;;;;2.17;0.80;;;;;;;17.36;39.60;101497.34;20878130;28;20053;-85
2023/03/16 00:10:45;;;;;;;1.50;0.70;;;;;;;17.36;39.46;101497.34;20879866;28;20040;-85
2023/03/16 00:20:51;;;;;;;1.35;0.73;;;;;;;17.20;39.42;101474.28;20875390;28;20056;-85
2023/03/16 00:30:57;;;;;;;0.82;0.73;;;;;;;17.35;39.52;101493.78;20877815;28;20045;-85
2023/03/16 00:41:02;;;;;;;1.33;0.73;;;;;;;17.33;39.48;101482.28;20865770;28;20051;-85
2023/03/16 00:51:07;;;;;;;1.67;0.95;;;;;;;17.23;39.60;101457.94;20877364;28;20052;-85
2023/03/16 01:01:17;;;;;;;0.67;0.60;;;;;;;17.29;39.43;101458.44;20865082;28;20072;-85
2023/03/16 01:11:21;;;;;;;1.42;0.85;;;;;;;17.19;39.52;101428.66;20829339;28;20097;-85
2023/03/16 01:21:22;;;;;;;2.00;0.85;;;;;;;17.32;39.42;101433.97;20874773;28;20097;-85
2023/03/16 01:31:24;;;;;;;1.73;0.90;;;;;;;17.21;39.69;101405.19;20861979;28;20123;-85
2023/03/16 01:41:26;;;;;;;1.70;1.10;;;;;;;17.30;39.54;101415.22;20862827;28;20049;-85
2023/03/16 01:51:34;;;;;;;1.08;0.77;;;;;;;17.10;39.51;101355.78;20890472;28;20037;-85
2023/03/16 02:01:36;;;;;;;1.73;0.90;;;;;;;17.25;39.45;101375.25;20872511;28;20041;-85
2023/03/16 02:11:38;;;;;;;1.80;1.23;;;;;;;17.15;39.54;101355.41;20868919;28;20037;-86
2023/03/16 02:22:00;;;;;;;1.73;0.95;;;;;;;17.16;39.60;101340.97;20860084;28;20051;-86
2023/03/16 02:32:05;;;;;;;1.45;0.82;;;;;;;17.28;39.65;101346.38;20852538;28;20045;-85
2023/03/16 02:42:11;;;;;;;2.05;1.08;;;;;;;17.23;39.60;101319.81;20856352;28;20068;-85
2023/03/16 02:52:13;;;;;;;1.90;1.00;;;;;;;17.28;39.58;101346.38;20857298;28;20049;-86
2023/03/16 03:02:15;;;;;;;1.05;0.77;;;;;;;17.27;39.47;101340.13;20865110;28;20329;-85
2023/03/16 03:12:17;;;;;;;1.63;1.00;;;;;;;17.24;39.49;101327.78;20883157;28;20048;-85
2023/03/16 03:22:18;;;;;;;2.17;1.10;;;;;;;17.27;39.55;101323.13;20863258;28;20053;-85
2023/03/16 03:32:21;;;;;;;1.20;0.90;;;;;;;17.26;39.58;101316.88;20866307;28;20480;-85
2023/03/16 03:42:23;;;;;;;1.63;0.90;;;;;;;17.24;39.62;101314.34;20859229;28;20151;-85
2023/03/16 03:52:27;;;;;;;2.17;1.10;;;;;;;17.15;39.68;101263.94;20844780;28;20649;-85
2023/03/16 04:02:29;;;;;;;0.90;0.77;;;;;;;17.16;39.64;101257.56;20854981;28;20045;-85
2023/03/16 04:12:31;;;;;;;1.73;0.95;;;;;;;17.24;39.73;101265.03;20878458;28;20045;-85
2023/03/16 04:22:34;;;;;;;2.35;1.10;;;;;;;17.23;39.69;101252.56;20843128;28;20048;-85
2023/03/16 04:32:37;;;;;;;2.03;1.20;;;;;;;17.02;39.66;101212.09;20860748;28;20048;-85
2023/03/16 04:42:39;;;;;;;1.02;0.70;;;;;;;17.22;39.61;101230.16;20842534;28;20045;-85
2023/03/16 04:52:44;;;;;;;1.07;0.87;;;;;;;17.22;39.68;101234.69;20858201;28;20041;-85
2023/03/16 05:02:47;;;;;;;1.00;0.80;;;;;;;17.22;39.61;101229.31;20835793;28;20106;-85
2023/03/16 05:12:49;;;;;;;0.85;0.70;;;;;;;17.21;39.68;101228.44;20841872;28;20139;-85
2023/03/16 05:22:52;;;;;;;1.42;0.70;;;;;;;17.20;39.77;101226.75;20855161;28;20037;-85
2023/03/16 05:33:00;;;;;;;0.70;0.70;;;;;;;17.21;39.71;101216.84;20855720;28;20049;-85
2023/03/16 05:43:11;;;;;;;1.17;0.77;;;;;;;17.03;39.67;101182.41;20861246;28;20080;-85
2023/03/16 05:53:18;;;;;;;1.55;1.00;;;;;;;17.24;40.16;101206.72;20848841;28;20497;-81
2023/03/16 06:03:21;;;;;;;2.22;0.90;;;;;;;17.59;42.52;101220.06;20831056;28;20048;-83
2023/03/16 06:13:24;;;;;;;1.63;0.82;;;;;;;17.66;43.37;101199.72;20846808;28;20052;-80
2023/03/16 06:23:26;;;;;;;1.20;0.90;;;;;;;17.73;43.08;101194.69;20927367;28;20041;-83
2023/03/16 06:33:30;;;;;;;1.95;0.60;;;;;;;17.79;43.05;101184.28;20836531;28;20041;-83
2023/03/16 06:43:32;;;;;;;1.42;0.80;;;;;;;17.95;42.94;101209.91;20855603;28;20094;-80
2023/03/16 06:53:33;;;;;;;1.02;0.60;;;;;;;18.01;42.73;101219.34;20884488;28;20068;-80
2023/03/16 07:03:35;;;;;;;1.23;0.52;;;;;;;18.03;42.38;101210.16;20884285;28;20099;-79
2023/03/16 07:13:47;;;;;;;1.23;0.90;;;;;;;18.03;42.19;101207.47;20885238;28;20099;-81
2023/03/16 07:23:50;;;;;;;1.20;0.90;;;;;;;18.02;42.20;101211.13;20857700;28;20045;-82
2023/03/16 07:33:58;;;;;;;0.98;0.60;;;;;;;18.03;42.22;101217.41;20880761;28;20567;-82
2023/03/16 07:44:10;;;;;;;1.08;0.70;;;;;;;18.04;42.18;101228.03;20864967;28;20063;-81
2023/03/16 07:54:13;;;;;;;1.77;0.80;;;;;;;18.03;42.33;101207.47;20864112;28;20528;-82
2023/03/16 08:04:14;;;;;;;0.77;0.47;;;;;;;18.00;42.28;101215.75;20852209;28;20120;-82
2023/03/16 08:14:17;;;;;;;0.60;0.47;;;;;;;17.98;42.38;101204.25;20858182;28;20083;-84
2023/03/16 08:24:35;;;;;;;5.03;1.85;;;;;;;17.92;42.41;101220.94;20843482;28;20041;-84
2023/03/16 08:34:38;;;;;;;1.40;0.90;;;;;;;17.85;42.80;101214.38;20838925;28;20048;-84
2023/03/16 08:44:42;;;;;;;1.58;0.70;;;;;;;17.88;43.04;101224.88;20834259;28;20068;-83
2023/03/16 08:54:44;;;;;;;2.20;1.00;;;;;;;17.86;43.28;101229.53;20853703;28;20077;-81
2023/03/16 09:05:02;;;;;;;0.70;0.60;;;;;;;17.82;43.39;101232.50;20831575;28;20097;-83
2023/03/16 09:15:04;;;;;;;1.38;0.60;;;;;;;17.72;43.50;101215.41;20825294;28;20139;-84
2023/03/16 09:25:07;;;;;;;1.10;0.50;;;;;;;17.80;43.42;101225.50;20888065;28;20511;-81
2023/03/16 09:35:09;;;;;;;1.00;0.88;;;;;;;17.74;43.53;101205.34;20840048;28;20049;-83
2023/03/16 09:45:48;;;;;;;1.50;0.75;;;;;;;17.77;43.54;101199.72;20863956;28;20045;-84
2023/03/16 09:55:54;;;;;;;0.60;0.60;;;;;;;17.74;43.44;101178.44;20847683;28;20102;-86
2023/03/16 10:06:01;;;;;;;1.00;0.65;;;;;;;17.77;43.63;101190.75;20833675;28;20048;-85
2023/03/16 10:16:19;;;;;;;0.68;0.45;;;;;;;17.47;43.47;101147.44;20864905;28;20064;-86
2023/03/16 10:26:32;;;;;;;0.98;0.80;;;;;;;17.77;43.57;101170.09;20907752;28;20111;-85
2023/03/16 10:36:37;;;;;;;1.15;0.55;;;;;;;17.77;43.48;101158.44;20873065;28;20053;-92
2023/03/16 10:47:03;;;;;;;0.70;0.60;;;;;;;17.76;43.60;101141.47;20858666;28;20106;-95
2023/03/16 10:57:36;;;;;;;1.42;0.80;;;;;;;17.93;44.88;101136.47;20866990;28;20059;-83
2023/03/16 11:07:38;;;;;;;1.10;0.65;;;;;;;18.03;45.17;101140.09;20862569;28;20044;-82
2023/03/16 11:17:43;;;;;;;0.90;0.77;;;;;;;17.98;45.32;101107.28;20855693;28;20056;-88
2023/03/16 11:27:48;;;;;;;1.02;0.60;;;;;;;18.14;45.25;101111.41;20860553;28;20079;-81
2023/03/16 11:37:59;;;;;;;0.73;0.50;;;;;;;18.14;45.37;101100.63;20893395;28;20065;-82
2023/03/16 11:48:15;;;;;;;1.33;0.80;;;;;;;18.15;45.47;101086.16;20861197;28;20561;-87
2023/03/16 11:58:23;;;;;;;2.40;1.00;;;;;;;18.16;45.94;101075.25;20894554;28;20497;-82
2023/03/16 12:08:37;;;;;;;2.75;0.82;;;;;;;18.17;45.97;101051.88;20915801;28;20131;-82
2023/03/16 12:18:45;;;;;;;1.13;0.70;;;;;;;18.10;45.77;101036.22;20916076;28;20045;-82
2023/03/16 12:28:48;;;;;;;1.67;0.80;;;;;;;18.23;45.78;101029.75;20897650;28;20057;-83
2023/03/16 12:39:18;;;;;;;1.60;0.90;;;;;;;18.25;45.58;101006.22;20881516;28;20571;-82
2023/03/16 12:49:20;;;;;;;1.05;0.60;;;;;;;18.24;45.73;100985.66;20886303;28;20098;-83
2023/03/16 12:59:22;;;;;;;4.85;0.90;;;;;;;18.26;45.40;100999.84;20849086;28;20053;-81
2023/03/16 13:09:27;;;;;;;1.20;0.75;;;;;;;18.26;45.38;100986.38;20837022;28;20045;-85
2023/03/16 13:19:31;;;;;;;1.27;0.80;;;;;;;18.11;45.19;100958.94;20813827;28;20584;-82
2023/03/16 13:29:33;;;;;;;1.20;0.80;;;;;;;18.25;45.46;100965.81;20878011;28;20057;-81
2023/03/16 13:39:34;;;;;;;1.77;1.02;;;;;;;18.24;45.10;100939.84;20846748;28;20141;-80
2023/03/16 13:49:57;;;;;;;1.30;1.20;;;;;;;18.38;45.30;100931.34;20874655;28;20079;-80
2023/03/16 14:00:12;;;;;;;1.75;0.90;;;;;;;18.31;45.21;100899.69;20861445;28;20049;-79
2023/03/16 14:10:15;;;;;;;1.52;1.10;;;;;;;18.43;45.33;100890.53;20860982;28;20550;-79
2023/03/16 14:20:20;;;;;;;1.25;1.05;;;;;;;18.42;45.25;100883.44;20854096;28;20413;-80
2023/03/16 14:30:24;;;;;;;2.40;1.03;;;;;;;18.40;45.43;100867.38;20886099;28;20136;-80
2023/03/16 14:40:31;;;;;;;1.60;0.90;;;;;;;18.54;45.61;100865.25;20874854;28;20049;-83
2023/03/16 14:50:33;;;;;;;2.35;0.80;;;;;;;18.48;45.45;100857.72;20880532;28;20051;-83
2023/03/16 15:00:35;;;;;;;1.88;0.85;;;;;;;18.18;45.32;100805.69;20905001;28;20044;-83
2023/03/16 15:10:54;;;;;;;2.20;1.15;;;;;;;18.07;45.27;100788.63;20906510;28;20041;-82
2023/03/16 15:20:56;;;;;;;2.00;0.70;;;;;;;18.20;45.33;100798.31;20885713;28;20060;-82
2023/03/16 15:31:02;;;;;;;1.92;0.68;;;;;;;18.26;45.09;100809.34;20920180;28;20105;-82
2023/03/16 15:41:08;;;;;;;1.15;0.77;;;;;;;18.24;45.09;100805.09;20878047;28;20055;-82
2023/03/16 15:51:26;;;;;;;1.23;0.80;;;;;;;18.22;44.95;100793.63;20890446;28;20049;-82
2023/03/16 16:01:30;;;;;;;0.65;0.65;;;;;;;18.16;44.65;100773.47;20908042;28;20063;-82
2023/03/16 16:11:32;;;;;;;1.13;0.75;;;;;;;18.15;44.54;100787.94;20848282;28;20075;-82
2023/03/16 16:21:34;;;;;;;1.05;0.80;;;;;;;18.19;44.61;100754.31;20918224;28;20052;-82
2023/03/16 16:31:36;;;;;;;1.45;0.88;;;;;;;18.11;44.51;100751.50;20916262;28;20093;-82
2023/03/16 16:41:38;;;;;;;0.70;0.70;;;;;;;17.91;44.38;100718.28;20913616;28;20040;-82
2023/03/16 16:51:41;;;;;;;1.00;0.80;;;;;;;18.16;44.21;100757.31;20899370;28;20113;-82
2023/03/16 17:01:44;;;;;;;0.77;0.70;;;;;;;18.00;44.17;100716.59;20913622;28;20106;-82
2023/03/16 17:11:45;;;;;;;1.45;0.65;;;;;;;18.15;44.23;100735.91;20899531;28;20060;-82
2023/03/16 17:21:48;;;;;;;1.20;0.88;;;;;;;18.09;44.02;100734.63;20900316;28;20130;-83
2023/03/16 17:31:50;;;;;;;0.57;0.45;;;;;;;18.14;44.19;100734.22;20840912;28;20191;-84
2023/03/16 17:41:58;;;;;;;1.05;0.80;;;;;;;18.13;44.13;100737.91;20835569;28;20045;-84
2023/03/16 17:52:00;;;;;;;0.77;0.70;;;;;;;17.85;44.10;100697.31;20849498;28;20131;-89
2023/03/16 18:02:01;;;;;;;0.93;0.80;;;;;;;18.11;44.13;100744.25;20831893;28;20068;-87
2023/03/16 18:12:03;;;;;;;0.65;0.65;;;;;;;18.10;44.07;100729.06;20802839;28;20064;-92
2023/03/16 18:22:13;;;;;;;1.02;0.73;;;;;;;17.94;44.15;100696.44;20843943;28;20379;-82
2023/03/16 18:32:26;;;;;;;0.63;0.60;;;;;;;18.08;43.98;100709.50;20820285;28;20044;-90
2023/03/16 18:42:27;;;;;;;1.80;0.70;;;;;;;18.07;43.98;100693.50;20831630;28;20056;-85
2023/03/16 18:52:31;;;;;;;0.70;0.60;;;;;;;18.07;44.10;100694.34;20850702;28;20051;-86
2023/03/16 19:02:41;;;;;;;1.00;0.90;;;;;;;17.94;44.12;100664.13;20883335;28;20409;-90
2023/03/16 19:12:42;;;;;;;2.15;0.77;;;;;;;17.88;44.28;100656.63;20866871;28;20045;-90
2023/03/16 19:22:46;;;;;;;1.13;0.80;;;;;;;17.82;44.23;100666.09;20880424;28;20474;-90
2023/03/16 19:32:49;;;;;;;3.25;0.85;;;;;;;17.77;44.69;100666.56;20861298;28;20076;-89
2023/03/16 19:42:51;;;;;;;0.90;0.75;;;;;;;17.75;44.24;100668.53;20841441;28;20051;-90
2023/03/16 19:52:53;;;;;;;1.17;0.63;;;;;;;17.73;44.05;100642.72;20880256;28;20048;-90
2023/03/16 20:02:55;;;;;;;0.90;0.60;;;;;;;17.70;44.04;100616.97;20855492;28;20072;-91
2023/03/16 20:12:59;;;;;;;0.85;0.73;;;;;;;17.59;44.09;100574.88;20876574;28;20068;-85
2023/03/16 20:23:01;;;;;;;1.30;0.90;;;;;;;17.67;44.17;100617.22;20857474;28;20779;-89
2023/03/16 20:33:03;;;;;;;1.10;0.77;;;;;;;17.66;43.99;100607.44;20801143;28;20124;-86
2023/03/16 20:43:19;;;;;;;0.80;0.80;;;;;;;17.66;44.72;100583.22;20860265;28;20547;-87
2023/03/16 20:53:24;;;;;;;1.23;0.70;;;;;;;17.67;45.32;100592.97;20836867;28;20070;-86
2023/03/16 21:03:29;;;;;;;1.30;0.70;;;;;;;17.63;46.05;100586.19;20837222;28;20059;-87
2023/03/16 21:13:31;;;;;;;1.40;0.88;;;;;;;17.60;46.82;100565.81;20848915;28;20048;-90
2023/03/16 21:23:33;;;;;;;0.70;0.70;;;;;;;17.56;47.35;100568.91;20847477;28;20052;-91
2023/03/16 21:33:37;;;;;;;1.02;0.90;;;;;;;17.57;47.80;100549.94;20845942;28;20071;-92
2023/03/16 21:43:38;;;;;;;0.93;0.60;;;;;;;17.43;48.32;100540.44;20796176;28;20041;-92
2023/03/16 21:53:40;;;;;;;0.95;0.65;;;;;;;17.51;48.81;100551.34;20804245;28;20111;-92
2023/03/16 22:03:42;;;;;;;1.48;1.05;;;;;;;17.48;49.04;100538.19;20822634;28;20050;-90
2023/03/16 22:13:52;;;;;;;1.33;1.00;;;;;;;17.50;49.38;100519.22;20805937;28;20053;-92
2023/03/16 22:23:54;;;;;;;1.20;0.80;;;;;;;17.53;49.57;100525.13;20806091;28;20076;-91
2023/03/16 22:33:56;;;;;;;1.30;0.80;;;;;;;17.48;49.78;100530.09;20840905;28;20045;-91
2023/03/16 22:43:58;;;;;;;1.00;0.90;;;;;;;17.48;50.16;100523.88;20886387;28;20132;-91
2023/03/16 22:54:02;;;;;;;0.82;0.70;;;;;;;17.51;50.18;100527.13;20887139;28;20528;-90
2023/03/16 23:04:12;;;;;;;0.82;0.70;;;;;;;17.50;50.25;100528.13;20888922;28;20041;-91
2023/03/16 23:14:16;;;;;;;1.25;0.70;;;;;;;17.50;50.48;100532.66;20876592;28;20045;-92
2023/03/16 23:24:18;;;;;;;1.15;0.70;;;;;;;17.49;50.40;100493.28;20907913;28;20072;-92
2023/03/16 23:34:21;;;;;;;0.70;0.68;;;;;;;17.47;50.19;100511.44;20963275;28;20064;-91
2023/03/16 23:44:25;;;;;;;0.68;0.60;;;;;;;17.43;50.55;100510.84;20959826;28;20052;-91
2023/03/16 23:54:29;;;;;;;0.65;0.65;;;;;;;17.48;50.33;100499.66;20968565;28;20055;-91
